Time;durP1;ratioP1;P1;durP2;ratioP2;P2;SDS_P1;SDS_P2;PMS_P1;PMS_P2;Temp;Humidity;BMP_temperature;BMP_pressure;BME280_temperature;BME280_humidity;BME280_pressure;Samples;Min_cycle;Max_cycle;Signal;HPM_P1;HPM_P2
2021/11/27 00:00:14;;;;;;;;;;;;;;;;;;1005444;29;1019;-35
2021/11/27 00:00:45;;;;;;;;;;;;;;;;;;1005512;29;1009;-35
2021/11/27 00:01:22;;;;;;;;;;;;;;;;;;1006352;29;939;-35
2021/11/27 00:01:53;;;;;;;;;;;;;;;;;;1009701;29;1425;-34
2021/11/27 00:02:24;;;;;;;;;;;;;;;;;;1014490;29;1076;-35
2021/11/27 00:02:54;;;;;;;;;;;;;;;;;;1014519;29;1141;-35
2021/11/27 00:03:26;;;;;;;;;;;;;;;;;;1014972;29;1148;-35
2021/11/27 00:04:04;;;;;;;;;;;;;;;;;;1014896;29;969;-35
2021/11/27 00:04:47;;;;;;;;;;;;;;;;;;1013826;29;1129;-35
2021/11/27 00:05:25;;;;;;;;;;;;;;;;;;1014829;29;895;-36
2021/11/27 00:05:58;;;;;;;;;;;;;;;;;;1014888;29;984;-36
2021/11/27 00:06:35;;;;;;;;;;;;;;;;;;1014822;29;822;-35
2021/11/27 00:07:06;;;;;;;;;;;;;;;;;;1014799;29;929;-35
2021/11/27 00:07:37;;;;;;;;;;;;;;;;;;1014570;29;1475;-36
2021/11/27 00:08:08;;;;;;;;;;;;;;;;;;1014517;29;1177;-35
2021/11/27 00:08:38;;;;;;;;;;;;;;;;;;1014702;29;1276;-34
2021/11/27 00:09:16;;;;;;;;;;;;;;;;;;1014556;29;1069;-35
2021/11/27 00:09:46;;;;;;;;;;;;;;;;;;1015020;29;901;-36
2021/11/27 00:10:18;;;;;;;;;;;;;;;;;;1009895;29;1023;-36
2021/11/27 00:10:50;;;;;;;;;;;;;;;;;;1010320;29;907;-36
2021/11/27 00:11:21;;;;;;;;;;;;;;;;;;1009901;29;1658;-35
2021/11/27 00:11:58;;;;;;;;;;;;;;;;;;1011557;29;1069;-36
2021/11/27 00:12:28;;;;;;;;;;;;;;;;;;1014095;29;925;-36
2021/11/27 00:13:00;;;;;;;;;;;;;;;;;;1013676;29;1021;-36
2021/11/27 00:13:30;;;;;;;;;;;;;;;;;;1014137;29;1018;-35
2021/11/27 00:14:01;;;;;;;;;;;;;;;;;;1010218;29;855;-35
2021/11/27 00:14:38;;;;;;;;;;;;;;;;;;1014406;29;943;-35
2021/11/27 00:15:15;;;;;;;;;;;;;;;;;;1014254;29;925;-35
2021/11/27 00:15:46;;;;;;;;;;;;;;;;;;1014729;29;929;-36
2021/11/27 00:16:17;;;;;;;;;;;;;;;;;;1010109;29;1017;-36
2021/11/27 00:16:48;;;;;;;;;;;;;;;;;;1006214;29;945;-36
2021/11/27 00:17:25;;;;;;;;;;;;;;;;;;1006219;29;942;-36
2021/11/27 00:18:02;;;;;;;;;;;;;;;;;;1009680;29;1086;-36
2021/11/27 00:18:32;;;;;;;;;;;;;;;;;;1014216;29;934;-36
2021/11/27 00:19:04;;;;;;;;;;;;;;;;;;1014936;29;847;-36
2021/11/27 00:19:34;;;;;;;;;;;;;;;;;;1014723;29;802;-35
2021/11/27 00:20:06;;;;;;;;;;;;;;;;;;1014981;29;909;-36
2021/11/27 00:20:47;;;;;;;;;;;;;;;;;;1014922;29;806;-35
2021/11/27 00:21:25;;;;;;;;;;;;;;;;;;1014534;29;890;-36
2021/11/27 00:21:55;;;;;;;;;;;;;;;;;;1014437;29;720;-35
2021/11/27 00:22:26;;;;;;;;;;;;;;;;;;1014427;29;867;-36
2021/11/27 00:23:03;;;;;;;;;;;;;;;;;;1014289;29;854;-35
2021/11/27 00:23:40;;;;;;;;;;;;;;;;;;1014196;29;1386;-35
2021/11/27 00:24:11;;;;;;;;;;;;;;;;;;1014706;29;1143;-35
2021/11/27 00:24:41;;;;;;;;;;;;;;;;;;1014737;29;1085;-35
2021/11/27 00:25:12;;;;;;;;;;;;;;;;;;1014685;29;866;-36
2021/11/27 00:25:44;;;;;;;;;;;;;;;;;;1014858;29;949;-35
2021/11/27 00:26:22;;;;;;;;;;;;;;;;;;1013864;29;1027;-35
2021/11/27 00:27:00;;;;;;;;;;;;;;;;;;1014290;29;1001;-35
2021/11/27 00:27:30;;;;;;;;;;;;;;;;;;1014028;29;922;-35
2021/11/27 00:28:01;;;;;;;;;;;;;;;;;;1011813;29;1217;-36
2021/11/27 00:28:32;;;;;;;;;;;;;;;;;;1014059;29;1227;-36
2021/11/27 00:29:03;;;;;;;;;;;;;;;;;;1014282;29;1286;-36
2021/11/27 00:29:40;;;;;;;;;;;;;;;;;;1010564;29;1312;-35
2021/11/27 00:30:20;;;;;;;;;;;;;;;;;;1007859;29;980;-35
2021/11/27 00:30:51;;;;;;;;;;;;;;;;;;1010300;29;921;-36
2021/11/27 00:31:25;;;;;;;;;;;;;;;;;;1010162;29;999;-36
2021/11/27 00:31:55;;;;;;;;;;;;;;;;;;1011096;29;906;-35
2021/11/27 00:32:25;;;;;;;;;;;;;;;;;;1014437;29;875;-35
2021/11/27 00:33:03;;;;;;;;;;;;;;;;;;1009976;29;987;-35
2021/11/27 00:33:34;;;;;;;;;;;;;;;;;;1011309;29;902;-35
2021/11/27 00:34:05;;;;;;;;;;;;;;;;;;1014342;29;1270;-36
2021/11/27 00:34:35;;;;;;;;;;;;;;;;;;1010175;29;1985;-36
2021/11/27 00:35:06;;;;;;;;;;;;;;;;;;1014636;29;906;-36
2021/11/27 00:35:44;;;;;;;;;;;;;;;;;;1014234;29;858;-36
2021/11/27 00:36:21;;;;;;;;;;;;;;;;;;1014457;29;807;-36
2021/11/27 00:36:53;;;;;;;;;;;;;;;;;;1014197;29;886;-35
2021/11/27 00:37:23;;;;;;;;;;;;;;;;;;1014393;29;798;-40
2021/11/27 00:37:57;;;;;;;;;;;;;;;;;;1014318;29;799;-36
2021/11/27 00:38:34;;;;;;;;;;;;;;;;;;1014014;29;1073;-36
2021/11/27 00:39:05;;;;;;;;;;;;;;;;;;1014748;29;838;-36
2021/11/27 00:39:36;;;;;;;;;;;;;;;;;;1014070;29;874;-36
2021/11/27 00:40:07;;;;;;;;;;;;;;;;;;1014624;29;949;-36
2021/11/27 00:40:40;;;;;;;;;;;;;;;;;;1014211;29;834;-35
2021/11/27 00:41:17;;;;;;;;;;;;;;;;;;1015502;29;1146;-35
2021/11/27 00:41:48;;;;;;;;;;;;;;;;;;1018388;29;862;-35
2021/11/27 00:42:26;;;;;;;;;;;;;;;;;;1009641;29;1363;-35
2021/11/27 00:42:56;;;;;;;;;;;;;;;;;;1005010;29;1003;-35
2021/11/27 00:43:27;;;;;;;;;;;;;;;;;;1005808;29;1358;-35
2021/11/27 00:44:05;;;;;;;;;;;;;;;;;;1009396;29;910;-35
2021/11/27 00:44:35;;;;;;;;;;;;;;;;;;1015364;29;812;-35
2021/11/27 00:45:10;;;;;;;;;;;;;;;;;;1013912;29;1253;-35
2021/11/27 00:45:42;;;;;;;;;;;;;;;;;;1009961;29;1049;-37
2021/11/27 00:46:13;;;;;;;;;;;;;;;;;;1005980;29;1062;-36
2021/11/27 00:46:51;;;;;;;;;;;;;;;;;;1006143;29;982;-36
2021/11/27 00:47:28;;;;;;;;;;;;;;;;;;1008216;29;910;-36
2021/11/27 00:47:59;;;;;;;;;;;;;;;;;;1012034;29;824;-36
2021/11/27 00:48:29;;;;;;;;;;;;;;;;;;1013888;29;1000;-36
2021/11/27 00:49:00;;;;;;;;;;;;;;;;;;1014395;29;772;-35
2021/11/27 00:49:32;;;;;;;;;;;;;;;;;;1014122;29;824;-35
2021/11/27 00:50:10;;;;;;;;;;;;;;;;;;1013529;29;1258;-35
2021/11/27 00:50:43;;;;;;;;;;;;;;;;;;1013795;29;1170;-36
2021/11/27 00:51:16;;;;;;;;;;;;;;;;;;1005930;29;1109;-35
2021/11/27 00:51:48;;;;;;;;;;;;;;;;;;1009086;29;1041;-36
2021/11/27 00:52:22;;;;;;;;;;;;;;;;;;1010159;29;903;-35
2021/11/27 00:53:01;;;;;;;;;;;;;;;;;;1011866;29;890;-36
2021/11/27 00:53:32;;;;;;;;;;;;;;;;;;1011485;29;1068;-35
2021/11/27 00:54:10;;;;;;;;;;;;;;;;;;1009385;29;2004;-36
2021/11/27 00:54:48;;;;;;;;;;;;;;;;;;1012992;29;1330;-35
2021/11/27 00:55:18;;;;;;;;;;;;;;;;;;1011818;29;967;-36
2021/11/27 00:55:49;;;;;;;;;;;;;;;;;;1013814;29;748;-36
2021/11/27 00:56:21;;;;;;;;;;;;;;;;;;1014412;29;1324;-35
2021/11/27 00:56:58;;;;;;;;;;;;;;;;;;1019178;29;874;-36
2021/11/27 00:57:28;;;;;;;;;;;;;;;;;;1022065;29;835;-36
2021/11/27 00:57:59;;;;;;;;;;;;;;;;;;1018148;29;882;-36
2021/11/27 00:58:30;;;;;;;;;;;;;;;;;;1017836;29;892;-36
2021/11/27 00:59:01;;;;;;;;;;;;;;;;;;1014024;29;930;-35
2021/11/27 00:59:39;;;;;;;;;;;;;;;;;;1013758;29;1163;-36
2021/11/27 01:00:12;;;;;;;;;;;;;;;;;;1013923;29;1034;-36
2021/11/27 01:00:51;;;;;;;;;;;;;;;;;;1013921;29;1220;-35
2021/11/27 01:01:25;;;;;;;;;;;;;;;;;;1011800;29;1322;-35
2021/11/27 01:01:56;;;;;;;;;;;;;;;;;;1014193;29;1376;-35
2021/11/27 01:02:27;;;;;;;;;;;;;;;;;;1015088;29;1600;-35
2021/11/27 01:03:06;;;;;;;;;;;;;;;;;;1016792;29;1334;-35
2021/11/27 01:03:45;;;;;;;;;;;;;;;;;;1009373;29;1205;-35
2021/11/27 01:04:29;;;;;;;;;;;;;;;;;;1009764;29;971;-35
2021/11/27 01:05:08;;;;;;;;;;;;;;;;;;1009848;29;1343;-35
2021/11/27 01:05:40;;;;;;;;;;;;;;;;;;1017258;29;1322;-35
2021/11/27 01:06:12;;;;;;;;;;;;;;;;;;1017921;29;1312;-35
2021/11/27 01:06:43;;;;;;;;;;;;;;;;;;1014131;29;1162;-35
2021/11/27 01:07:21;;;;;;;;;;;;;;;;;;1018261;29;1393;-35
2021/11/27 01:07:51;;;;;;;;;;;;;;;;;;1014035;29;796;-35
2021/11/27 01:08:22;;;;;;;;;;;;;;;;;;1014468;29;819;-35
2021/11/27 01:08:54;;;;;;;;;;;;;;;;;;1013788;29;1446;-35
2021/11/27 01:09:25;;;;;;;;;;;;;;;;;;1018287;29;747;-35
2021/11/27 01:10:06;;;;;;;;;;;;;;;;;;1018073;29;964;-35
2021/11/27 01:10:39;;;;;;;;;;;;;;;;;;1017937;29;846;-35
2021/11/27 01:11:10;;;;;;;;;;;;;;;;;;1014297;29;1307;-35
2021/11/27 01:11:43;;;;;;;;;;;;;;;;;;1014100;29;783;-35
2021/11/27 01:12:14;;;;;;;;;;;;;;;;;;1014889;29;852;-35
2021/11/27 01:12:51;;;;;;;;;;;;;;;;;;1014897;29;1404;-34
2021/11/27 01:13:22;;;;;;;;;;;;;;;;;;1017342;29;1158;-35
2021/11/27 01:13:54;;;;;;;;;;;;;;;;;;1012079;29;2143;-34
2021/11/27 01:14:26;;;;;;;;;;;;;;;;;;1009642;29;1982;-35
2021/11/27 01:14:56;;;;;;;;;;;;;;;;;;1010095;29;1266;-35
2021/11/27 01:15:34;;;;;;;;;;;;;;;;;;1014156;29;1181;-35
2021/11/27 01:16:05;;;;;;;;;;;;;;;;;;1015449;29;947;-35
2021/11/27 01:16:45;;;;;;;;;;;;;;;;;;1020334;29;834;-35
2021/11/27 01:17:23;;;;;;;;;;;;;;;;;;1019811;29;970;-35
2021/11/27 01:17:53;;;;;;;;;;;;;;;;;;1018413;29;779;-36
2021/11/27 01:18:24;;;;;;;;;;;;;;;;;;1018452;29;1151;-35
2021/11/27 01:18:55;;;;;;;;;;;;;;;;;;1018145;29;1027;-36
2021/11/27 01:19:26;;;;;;;;;;;;;;;;;;1021972;29;1058;-35
2021/11/27 01:20:05;;;;;;;;;;;;;;;;;;1022183;29;1024;-35
2021/11/27 01:20:38;;;;;;;;;;;;;;;;;;1017892;29;1250;-36
2021/11/27 01:21:10;;;;;;;;;;;;;;;;;;1018109;29;772;-35
2021/11/27 01:21:48;;;;;;;;;;;;;;;;;;1018258;29;941;-35
2021/11/27 01:22:21;;;;;;;;;;;;;;;;;;1018353;29;840;-35
2021/11/27 01:22:59;;;;;;;;;;;;;;;;;;1018504;29;934;-35
2021/11/27 01:23:30;;;;;;;;;;;;;;;;;;1018398;29;1006;-35
2021/11/27 01:24:10;;;;;;;;;;;;;;;;;;1021351;29;1282;-35
2021/11/27 01:24:41;;;;;;;;;;;;;;;;;;1017984;29;1157;-35
2021/11/27 01:25:19;;;;;;;;;;;;;;;;;;1018107;29;1100;-36
2021/11/27 01:25:51;;;;;;;;;;;;;;;;;;1016028;29;1118;-35
2021/11/27 01:26:22;;;;;;;;;;;;;;;;;;1017464;29;1370;-36
2021/11/27 01:26:58;;;;;;;;;;;;;;;;;;1017391;29;1182;-35
2021/11/27 01:27:35;;;;;;;;;;;;;;;;;;1021227;28;933;-35
2021/11/27 01:28:06;;;;;;;;;;;;;;;;;;1019738;29;1371;-35
2021/11/27 01:28:39;;;;;;;;;;;;;;;;;;1018031;29;1212;-35
2021/11/27 01:29:16;;;;;;;;;;;;;;;;;;1017068;29;1308;-35
2021/11/27 01:29:48;;;;;;;;;;;;;;;;;;1016017;29;1371;-36
2021/11/27 01:30:19;;;;;;;;;;;;;;;;;;1013699;29;988;-35
2021/11/27 01:30:50;;;;;;;;;;;;;;;;;;1008716;29;1258;-35
2021/11/27 01:31:21;;;;;;;;;;;;;;;;;;1010548;29;790;-35
2021/11/27 01:31:59;;;;;;;;;;;;;;;;;;1017987;29;1162;-36
2021/11/27 01:32:30;;;;;;;;;;;;;;;;;;1014863;29;1266;-35
2021/11/27 01:33:00;;;;;;;;;;;;;;;;;;1013642;29;1182;-35
2021/11/27 01:33:31;;;;;;;;;;;;;;;;;;1013707;29;956;-37
2021/11/27 01:34:03;;;;;;;;;;;;;;;;;;1009833;29;994;-37
2021/11/27 01:34:41;;;;;;;;;;;;;;;;;;1005678;29;1912;-37
2021/11/27 01:35:11;;;;;;;;;;;;;;;;;;1002051;29;1148;-37
2021/11/27 01:35:42;;;;;;;;;;;;;;;;;;1008048;29;1171;-37
2021/11/27 01:36:12;;;;;;;;;;;;;;;;;;1010356;29;1089;-37
2021/11/27 01:36:43;;;;;;;;;;;;;;;;;;1010243;29;1132;-37
2021/11/27 01:37:21;;;;;;;;;;;;;;;;;;1009785;29;1376;-35
2021/11/27 01:37:51;;;;;;;;;;;;;;;;;;1010687;29;1261;-37
2021/11/27 01:38:22;;;;;;;;;;;;;;;;;;1012738;29;1270;-37
2021/11/27 01:38:53;;;;;;;;;;;;;;;;;;1012801;29;1288;-37
2021/11/27 01:39:24;;;;;;;;;;;;;;;;;;1010568;29;808;-37
2021/11/27 01:40:03;;;;;;;;;;;;;;;;;;1017772;29;1210;-37
2021/11/27 01:40:34;;;;;;;;;;;;;;;;;;1018102;29;918;-37
2021/11/27 01:41:04;;;;;;;;;;;;;;;;;;1013857;29;1401;-35
2021/11/27 01:41:36;;;;;;;;;;;;;;;;;;1013793;29;1194;-35
2021/11/27 01:42:08;;;;;;;;;;;;;;;;;;1010489;29;1227;-37
2021/11/27 01:42:48;;;;;;;;;;;;;;;;;;1011634;29;1050;-37
2021/11/27 01:43:25;;;;;;;;;;;;;;;;;;1010174;29;1297;-37
2021/11/27 01:43:57;;;;;;;;;;;;;;;;;;1012150;29;1006;-37
2021/11/27 01:44:29;;;;;;;;;;;;;;;;;;1006887;29;1042;-37
2021/11/27 01:45:00;;;;;;;;;;;;;;;;;;1005685;29;1380;-37
2021/11/27 01:45:38;;;;;;;;;;;;;;;;;;1001892;29;1086;-37
2021/11/27 01:46:15;;;;;;;;;;;;;;;;;;1002064;29;1230;-36
2021/11/27 01:46:47;;;;;;;;;;;;;;;;;;1006091;29;1198;-35
2021/11/27 01:47:17;;;;;;;;;;;;;;;;;;1004391;29;1302;-35
2021/11/27 01:48:08;;;;;;;;;;;;;;;;;;1010279;29;792;-37
2021/11/27 01:48:39;;;;;;;;;;;;;;;;;;1016812;29;785;-37
2021/11/27 01:49:16;;;;;;;;;;;;;;;;;;1021420;29;1169;-37
2021/11/27 01:49:46;;;;;;;;;;;;;;;;;;1017503;29;1055;-36
2021/11/27 01:50:17;;;;;;;;;;;;;;;;;;1017035;29;1448;-36
2021/11/27 01:50:53;;;;;;;;;;;;;;;;;;1012904;29;1151;-37
2021/11/27 01:51:23;;;;;;;;;;;;;;;;;;1006757;29;1000;-37
2021/11/27 01:52:01;;;;;;;;;;;;;;;;;;1009796;29;1183;-36
2021/11/27 01:52:31;;;;;;;;;;;;;;;;;;1011398;29;1246;-37
2021/11/27 01:53:02;;;;;;;;;;;;;;;;;;1013315;29;1334;-36
2021/11/27 01:53:34;;;;;;;;;;;;;;;;;;1009945;29;1248;-36
2021/11/27 01:54:07;;;;;;;;;;;;;;;;;;1010399;29;1995;-35
2021/11/27 01:54:46;;;;;;;;;;;;;;;;;;1012057;29;1171;-37
2021/11/27 01:55:18;;;;;;;;;;;;;;;;;;1011597;29;1428;-37
2021/11/27 01:55:50;;;;;;;;;;;;;;;;;;1009539;29;1341;-37
2021/11/27 01:56:22;;;;;;;;;;;;;;;;;;1009860;29;1249;-38
2021/11/27 01:56:55;;;;;;;;;;;;;;;;;;1009189;29;1172;-37
2021/11/27 01:57:33;;;;;;;;;;;;;;;;;;1007623;29;1491;-37
2021/11/27 01:58:05;;;;;;;;;;;;;;;;;;1009989;29;1117;-37
2021/11/27 01:58:35;;;;;;;;;;;;;;;;;;1011562;29;1204;-37
2021/11/27 01:59:07;;;;;;;;;;;;;;;;;;1010394;29;1222;-37
2021/11/27 01:59:40;;;;;;;;;;;;;;;;;;1013871;29;1415;-37
2021/11/27 02:00:21;;;;;;;;;;;;;;;;;;1013890;29;1073;-37
2021/11/27 02:00:53;;;;;;;;;;;;;;;;;;1014151;29;932;-37
2021/11/27 02:01:27;;;;;;;;;;;;;;;;;;1015740;29;1295;-37
2021/11/27 02:01:58;;;;;;;;;;;;;;;;;;1018064;29;1289;-37
2021/11/27 02:02:35;;;;;;;;;;;;;;;;;;1014046;29;1253;-37
2021/11/27 02:03:05;;;;;;;;;;;;;;;;;;1013863;29;1171;-37
2021/11/27 02:03:57;;;;;;;;;;;;;;;;;;1010302;29;1226;-37
2021/11/27 02:04:42;;;;;;;;;;;;;;;;;;1009082;29;1312;-38
2021/11/27 02:05:25;;;;;;;;;;;;;;;;;;1010074;29;1179;-37
2021/11/27 02:05:57;;;;;;;;;;;;;;;;;;1013994;29;1302;-37
2021/11/27 02:06:29;;;;;;;;;;;;;;;;;;1010750;29;1399;-37
2021/11/27 02:07:00;;;;;;;;;;;;;;;;;;1007074;29;991;-37
2021/11/27 02:07:40;;;;;;;;;;;;;;;;;;1010012;29;1190;-37
2021/11/27 02:08:12;;;;;;;;;;;;;;;;;;1007098;29;1182;-37
2021/11/27 02:08:44;;;;;;;;;;;;;;;;;;1009533;29;848;-37
2021/11/27 02:09:20;;;;;;;;;;;;;;;;;;1005801;29;955;-37
2021/11/27 02:09:51;;;;;;;;;;;;;;;;;;1006680;29;1161;-39
2021/11/27 02:10:29;;;;;;;;;;;;;;;;;;1005876;29;1321;-36
2021/11/27 02:11:01;;;;;;;;;;;;;;;;;;996129;29;1364;-37
2021/11/27 02:11:33;;;;;;;;;;;;;;;;;;994304;29;1099;-37
2021/11/27 02:12:06;;;;;;;;;;;;;;;;;;994796;29;1415;-37
2021/11/27 02:12:38;;;;;;;;;;;;;;;;;;1000680;29;1213;-37
2021/11/27 02:13:17;;;;;;;;;;;;;;;;;;1007558;29;1199;-37
2021/11/27 02:13:54;;;;;;;;;;;;;;;;;;1012462;29;1297;-38
2021/11/27 02:14:25;;;;;;;;;;;;;;;;;;1013967;29;1914;-37
2021/11/27 02:15:11;;;;;;;;;;;;;;;;;;1012550;29;1038;-37
2021/11/27 02:15:49;;;;;;;;;;;;;;;;;;1014137;29;1382;-37
2021/11/27 02:16:20;;;;;;;;;;;;;;;;;;1009938;29;1402;-37
2021/11/27 02:16:51;;;;;;;;;;;;;;;;;;1011571;29;851;-37
2021/11/27 02:17:23;;;;;;;;;;;;;;;;;;1009934;29;1301;-37
2021/11/27 02:18:01;;;;;;;;;;;;;;;;;;1011444;29;1226;-35
2021/11/27 02:18:32;;;;;;;;;;;;;;;;;;1009775;29;1291;-35
2021/11/27 02:19:03;;;;;;;;;;;;;;;;;;1009568;29;1269;-37
2021/11/27 02:19:41;;;;;;;;;;;;;;;;;;1008710;29;961;-37
2021/11/27 02:20:13;;;;;;;;;;;;;;;;;;1006737;29;1294;-37
2021/11/27 02:20:54;;;;;;;;;;;;;;;;;;1013592;29;2004;-37
2021/11/27 02:21:33;;;;;;;;;;;;;;;;;;1009744;29;1239;-37
2021/11/27 02:22:10;;;;;;;;;;;;;;;;;;1009332;29;1187;-37
2021/11/27 02:22:47;;;;;;;;;;;;;;;;;;1006266;29;1264;-37
2021/11/27 02:23:18;;;;;;;;;;;;;;;;;;1008068;29;1152;-37
2021/11/27 02:23:50;;;;;;;;;;;;;;;;;;1006843;29;1660;-37
2021/11/27 02:24:28;;;;;;;;;;;;;;;;;;1009664;29;1536;-36
2021/11/27 02:24:59;;;;;;;;;;;;;;;;;;1011465;29;1063;-37
2021/11/27 02:25:31;;;;;;;;;;;;;;;;;;1014938;29;1281;-37
2021/11/27 02:26:05;;;;;;;;;;;;;;;;;;1017774;29;1142;-37
2021/11/27 02:26:41;;;;;;;;;;;;;;;;;;1013525;29;1250;-37
2021/11/27 02:27:19;;;;;;;;;;;;;;;;;;1011088;29;1274;-37
2021/11/27 02:27:51;;;;;;;;;;;;;;;;;;1007298;29;1132;-37
2021/11/27 02:28:23;;;;;;;;;;;;;;;;;;1005754;29;1054;-37
2021/11/27 02:29:01;;;;;;;;;;;;;;;;;;1010178;29;919;-37
2021/11/27 02:29:34;;;;;;;;;;;;;;;;;;1008127;29;1179;-37
2021/11/27 02:30:12;;;;;;;;;;;;;;;;;;1005772;29;1056;-37
2021/11/27 02:30:43;;;;;;;;;;;;;;;;;;1005579;29;1261;-37
2021/11/27 02:31:15;;;;;;;;;;;;;;;;;;1005180;29;1370;-37
2021/11/27 02:31:54;;;;;;;;;;;;;;;;;;1008474;29;1011;-37
2021/11/27 02:32:25;;;;;;;;;;;;;;;;;;1010797;29;1448;-36
2021/11/27 02:32:55;;;;;;;;;;;;;;;;;;1009782;29;1283;-37
2021/11/27 02:33:32;;;;;;;;;;;;;;;;;;1009770;29;1438;-36
2021/11/27 02:34:05;;;;;;;;;;;;;;;;;;1010740;29;1343;-37
2021/11/27 02:34:36;;;;;;;;;;;;;;;;;;1009428;29;1907;-35
2021/11/27 02:35:11;;;;;;;;;;;;;;;;;;1008699;29;1448;-34
2021/11/27 02:35:41;;;;;;;;;;;;;;;;;;1001732;29;1211;-37
2021/11/27 02:36:19;;;;;;;;;;;;;;;;;;1006167;29;1257;-36
2021/11/27 02:36:58;;;;;;;;;;;;;;;;;;1011700;29;961;-36
2021/11/27 02:37:29;;;;;;;;;;;;;;;;;;1009546;29;996;-36
2021/11/27 02:37:59;;;;;;;;;;;;;;;;;;1009726;29;1012;-34
2021/11/27 02:38:30;;;;;;;;;;;;;;;;;;1009746;29;1300;-34
2021/11/27 02:39:03;;;;;;;;;;;;;;;;;;1009684;29;945;-36
2021/11/27 02:39:41;;;;;;;;;;;;;;;;;;1007190;29;1264;-37
2021/11/27 02:40:22;;;;;;;;;;;;;;;;;;1005548;29;1013;-37
2021/11/27 02:40:53;;;;;;;;;;;;;;;;;;1008429;29;972;-37
2021/11/27 02:41:23;;;;;;;;;;;;;;;;;;1011192;29;1170;-36
2021/11/27 02:41:55;;;;;;;;;;;;;;;;;;1009771;29;895;-36
2021/11/27 02:42:29;;;;;;;;;;;;;;;;;;1009404;29;1549;-36
2021/11/27 02:43:07;;;;;;;;;;;;;;;;;;1007997;29;1298;-36
2021/11/27 02:43:38;;;;;;;;;;;;;;;;;;1008077;29;1238;-36
2021/11/27 02:44:09;;;;;;;;;;;;;;;;;;1005680;29;1662;-36
2021/11/27 02:44:47;;;;;;;;;;;;;;;;;;1007517;29;1343;-36
2021/11/27 02:45:17;;;;;;;;;;;;;;;;;;1005928;29;871;-37
2021/11/27 02:45:48;;;;;;;;;;;;;;;;;;1004932;29;1325;-36
2021/11/27 02:46:19;;;;;;;;;;;;;;;;;;1010894;29;1180;-36
2021/11/27 02:46:49;;;;;;;;;;;;;;;;;;1013407;29;1189;-36
2021/11/27 02:47:26;;;;;;;;;;;;;;;;;;1013873;29;1095;-36
2021/11/27 02:47:57;;;;;;;;;;;;;;;;;;1010048;29;1178;-37
2021/11/27 02:48:28;;;;;;;;;;;;;;;;;;1010698;29;1320;-36
2021/11/27 02:48:59;;;;;;;;;;;;;;;;;;1013978;29;1357;-36
2021/11/27 02:49:36;;;;;;;;;;;;;;;;;;1010987;29;840;-36
2021/11/27 02:50:07;;;;;;;;;;;;;;;;;;1013838;29;780;-36
2021/11/27 02:50:38;;;;;;;;;;;;;;;;;;1005602;29;1328;-36
2021/11/27 02:51:09;;;;;;;;;;;;;;;;;;1005780;29;1285;-37
2021/11/27 02:51:40;;;;;;;;;;;;;;;;;;1011543;29;1322;-36
2021/11/27 02:52:17;;;;;;;;;;;;;;;;;;1009792;29;1018;-36
2021/11/27 02:52:47;;;;;;;;;;;;;;;;;;1009520;29;1029;-37
2021/11/27 02:53:18;;;;;;;;;;;;;;;;;;1009799;29;1052;-37
2021/11/27 02:53:48;;;;;;;;;;;;;;;;;;1009787;29;1396;-34
2021/11/27 02:54:20;;;;;;;;;;;;;;;;;;1013944;29;1919;-35
2021/11/27 02:54:58;;;;;;;;;;;;;;;;;;1015005;29;1124;-37
2021/11/27 02:55:29;;;;;;;;;;;;;;;;;;1012605;29;1373;-36
2021/11/27 02:56:00;;;;;;;;;;;;;;;;;;1010857;29;1166;-37
2021/11/27 02:56:31;;;;;;;;;;;;;;;;;;1013857;29;1377;-37
2021/11/27 02:57:03;;;;;;;;;;;;;;;;;;1009984;29;1219;-37
2021/11/27 02:57:40;;;;;;;;;;;;;;;;;;1010873;29;1354;-37
2021/11/27 02:58:10;;;;;;;;;;;;;;;;;;1009999;29;1062;-36
2021/11/27 02:58:42;;;;;;;;;;;;;;;;;;1011092;29;1417;-37
2021/11/27 02:59:17;;;;;;;;;;;;;;;;;;1013779;29;995;-37
2021/11/27 02:59:49;;;;;;;;;;;;;;;;;;1013371;29;868;-35
2021/11/27 03:00:32;;;;;;;;;;;;;;;;;;1011858;29;1432;-35
2021/11/27 03:01:03;;;;;;;;;;;;;;;;;;1013456;29;1171;-35
2021/11/27 03:01:42;;;;;;;;;;;;;;;;;;1006892;29;1179;-35
2021/11/27 03:02:12;;;;;;;;;;;;;;;;;;1011141;29;1226;-35
2021/11/27 03:02:43;;;;;;;;;;;;;;;;;;1010026;29;1231;-35
2021/11/27 03:03:13;;;;;;;;;;;;;;;;;;1009743;29;1447;-35
2021/11/27 03:03:50;;;;;;;;;;;;;;;;;;1012815;29;1080;-35
2021/11/27 03:04:29;;;;;;;;;;;;;;;;;;1011465;29;1031;-35
2021/11/27 03:05:13;;;;;;;;;;;;;;;;;;1010595;29;1331;-35
2021/11/27 03:05:51;;;;;;;;;;;;;;;;;;1009062;29;1081;-35
2021/11/27 03:06:21;;;;;;;;;;;;;;;;;;1009499;29;1117;-34
2021/11/27 03:06:58;;;;;;;;;;;;;;;;;;1009024;29;1291;-34
2021/11/27 03:07:36;;;;;;;;;;;;;;;;;;1010062;29;1037;-35
2021/11/27 03:08:06;;;;;;;;;;;;;;;;;;1009942;29;1050;-34
2021/11/27 03:08:37;;;;;;;;;;;;;;;;;;1010035;29;832;-35
2021/11/27 03:09:08;;;;;;;;;;;;;;;;;;1009831;29;1108;-35
2021/11/27 03:09:38;;;;;;;;;;;;;;;;;;1009963;29;907;-34
2021/11/27 03:10:16;;;;;;;;;;;;;;;;;;1009870;29;1167;-35
2021/11/27 03:10:47;;;;;;;;;;;;;;;;;;1013822;29;851;-35
2021/11/27 03:11:19;;;;;;;;;;;;;;;;;;1013733;29;827;-35
2021/11/27 03:11:52;;;;;;;;;;;;;;;;;;1014088;29;1273;-35
2021/11/27 03:12:22;;;;;;;;;;;;;;;;;;1017174;29;902;-35
2021/11/27 03:12:59;;;;;;;;;;;;;;;;;;1009837;29;946;-35
2021/11/27 03:13:32;;;;;;;;;;;;;;;;;;1004910;29;1116;-35
2021/11/27 03:14:03;;;;;;;;;;;;;;;;;;1006844;29;1414;-36
2021/11/27 03:14:34;;;;;;;;;;;;;;;;;;1002311;29;1911;-35
2021/11/27 03:15:14;;;;;;;;;;;;;;;;;;1005554;29;1319;-35
2021/11/27 03:15:51;;;;;;;;;;;;;;;;;;1003633;29;1238;-35
2021/11/27 03:16:25;;;;;;;;;;;;;;;;;;1007758;29;856;-36
2021/11/27 03:16:58;;;;;;;;;;;;;;;;;;1009500;29;1242;-36
2021/11/27 03:17:28;;;;;;;;;;;;;;;;;;1006540;29;927;-36
2021/11/27 03:18:00;;;;;;;;;;;;;;;;;;1008233;29;1499;-36
2021/11/27 03:18:37;;;;;;;;;;;;;;;;;;1006736;29;1183;-35
2021/11/27 03:19:08;;;;;;;;;;;;;;;;;;1008983;29;1374;-35
2021/11/27 03:19:39;;;;;;;;;;;;;;;;;;1005795;29;1002;-35
2021/11/27 03:20:11;;;;;;;;;;;;;;;;;;1002017;29;1315;-35
2021/11/27 03:20:42;;;;;;;;;;;;;;;;;;1005054;29;1294;-36
2021/11/27 03:21:19;;;;;;;;;;;;;;;;;;1000885;29;1080;-35
2021/11/27 03:21:56;;;;;;;;;;;;;;;;;;1003710;29;897;-35
2021/11/27 03:22:26;;;;;;;;;;;;;;;;;;1005949;29;839;-35
2021/11/27 03:22:57;;;;;;;;;;;;;;;;;;1006810;29;1307;-35
2021/11/27 03:23:30;;;;;;;;;;;;;;;;;;1005871;29;1104;-36
2021/11/27 03:24:02;;;;;;;;;;;;;;;;;;1006023;29;1393;-35
2021/11/27 03:24:41;;;;;;;;;;;;;;;;;;1007065;29;1423;-36
2021/11/27 03:25:12;;;;;;;;;;;;;;;;;;1006046;29;1171;-35
2021/11/27 03:25:44;;;;;;;;;;;;;;;;;;1006942;29;1179;-35
2021/11/27 03:26:14;;;;;;;;;;;;;;;;;;1005910;29;1215;-35
2021/11/27 03:26:52;;;;;;;;;;;;;;;;;;1003362;29;1294;-35
2021/11/27 03:27:22;;;;;;;;;;;;;;;;;;1005273;29;1467;-35
2021/11/27 03:27:59;;;;;;;;;;;;;;;;;;1006126;29;1071;-35
2021/11/27 03:28:30;;;;;;;;;;;;;;;;;;1005887;29;1675;-35
2021/11/27 03:29:01;;;;;;;;;;;;;;;;;;1007013;29;860;-35
2021/11/27 03:29:33;;;;;;;;;;;;;;;;;;1009644;29;1653;-35
2021/11/27 03:30:08;;;;;;;;;;;;;;;;;;1005604;29;1334;-35
2021/11/27 03:30:47;;;;;;;;;;;;;;;;;;1005902;29;1017;-35
2021/11/27 03:31:19;;;;;;;;;;;;;;;;;;1007643;29;1184;-36
2021/11/27 03:31:55;;;;;;;;;;;;;;;;;;1009346;29;1151;-36
2021/11/27 03:32:40;;;;;;;;;;;;;;;;;;1005694;29;1560;-36
2021/11/27 03:33:22;;;;;;;;;;;;;;;;;;1002046;29;1275;-35
2021/11/27 03:34:00;;;;;;;;;;;;;;;;;;1005616;29;1581;-36
2021/11/27 03:34:31;;;;;;;;;;;;;;;;;;1009080;29;1970;-35
2021/11/27 03:35:02;;;;;;;;;;;;;;;;;;1006910;29;1388;-35
2021/11/27 03:35:42;;;;;;;;;;;;;;;;;;1004504;29;1358;-35
2021/11/27 03:36:16;;;;;;;;;;;;;;;;;;1000486;29;1210;-35
2021/11/27 03:36:54;;;;;;;;;;;;;;;;;;1005418;29;1206;-36
2021/11/27 03:37:24;;;;;;;;;;;;;;;;;;1008270;29;1194;-34
2021/11/27 03:37:55;;;;;;;;;;;;;;;;;;1008052;29;1207;-35
2021/11/27 03:38:30;;;;;;;;;;;;;;;;;;1005945;29;1293;-36
2021/11/27 03:39:08;;;;;;;;;;;;;;;;;;1008070;29;1238;-35
2021/11/27 03:39:41;;;;;;;;;;;;;;;;;;1008100;29;1215;-35
2021/11/27 03:40:12;;;;;;;;;;;;;;;;;;1006454;29;1322;-35
2021/11/27 03:40:43;;;;;;;;;;;;;;;;;;1003750;29;1733;-36
2021/11/27 03:41:15;;;;;;;;;;;;;;;;;;1002769;29;1156;-35
2021/11/27 03:41:54;;;;;;;;;;;;;;;;;;1007792;29;1371;-35
2021/11/27 03:42:25;;;;;;;;;;;;;;;;;;1008134;29;1332;-34
2021/11/27 03:42:56;;;;;;;;;;;;;;;;;;1013810;29;1285;-36
2021/11/27 03:43:26;;;;;;;;;;;;;;;;;;1009883;29;1351;-34
2021/11/27 03:43:57;;;;;;;;;;;;;;;;;;1010405;29;1175;-35
2021/11/27 03:44:34;;;;;;;;;;;;;;;;;;1009594;29;1407;-34
2021/11/27 03:45:08;;;;;;;;;;;;;;;;;;1003472;29;1223;-35
2021/11/27 03:45:40;;;;;;;;;;;;;;;;;;1005177;29;1227;-35
2021/11/27 03:46:17;;;;;;;;;;;;;;;;;;1008330;29;1224;-35
2021/11/27 03:46:47;;;;;;;;;;;;;;;;;;1008024;29;1410;-36
2021/11/27 03:47:25;;;;;;;;;;;;;;;;;;1012388;29;1261;-35
2021/11/27 03:47:59;;;;;;;;;;;;;;;;;;1009331;29;1160;-35
2021/11/27 03:48:32;;;;;;;;;;;;;;;;;;1006782;29;1368;-35
2021/11/27 03:49:21;;;;;;;;;;;;;;;;;;1006929;29;1278;-35
2021/11/27 03:49:52;;;;;;;;;;;;;;;;;;1009574;29;1277;-35
2021/11/27 03:50:30;;;;;;;;;;;;;;;;;;1006895;29;1167;-35
2021/11/27 03:51:02;;;;;;;;;;;;;;;;;;1008394;29;1272;-35
2021/11/27 03:51:33;;;;;;;;;;;;;;;;;;1010237;29;1182;-35
2021/11/27 03:52:04;;;;;;;;;;;;;;;;;;1009525;29;1039;-35
2021/11/27 03:52:44;;;;;;;;;;;;;;;;;;1006318;29;1312;-35
2021/11/27 03:53:24;;;;;;;;;;;;;;;;;;1006132;29;1329;-35
2021/11/27 03:53:55;;;;;;;;;;;;;;;;;;1002394;29;1246;-35
2021/11/27 03:54:26;;;;;;;;;;;;;;;;;;1002356;29;1915;-35
2021/11/27 03:55:03;;;;;;;;;;;;;;;;;;999869;29;1211;-35
2021/11/27 03:55:34;;;;;;;;;;;;;;;;;;1003315;29;1416;-35